Time;durP1;ratioP1;P1;durP2;ratioP2;P2;SDS_P1;SDS_P2;PMS_P1;PMS_P2;Temp;Humidity;BMP_temperature;BMP_pressure;BME280_temperature;BME280_humidity;BME280_pressure;Samples;Min_cycle;Max_cycle;Signal;HPM_P1;HPM_P2
2023/10/22 00:00:13;;;;;;;24.73;12.98;;;;;;;2.88;69.34;100532.16;5114246;28;20057;-61
2023/10/22 00:02:40;;;;;;;26.48;12.52;;;;;;;2.90;68.75;100524.19;5114265;28;20024;-60
2023/10/22 00:05:06;;;;;;;23.77;12.07;;;;;;;2.94;68.95;100526.66;5114288;28;20042;-61
2023/10/22 00:07:36;;;;;;;26.27;12.70;;;;;;;2.98;69.48;100536.19;5113078;28;20080;-61
2023/10/22 00:10:02;;;;;;;21.15;11.85;;;;;;;3.06;69.57;100540.34;5112932;28;20123;-61
2023/10/22 00:12:33;;;;;;;24.48;12.13;;;;;;;3.09;69.58;100519.03;5114284;28;20078;-59
2023/10/22 00:14:59;;;;;;;24.80;12.45;;;;;;;3.15;69.51;100514.38;5114154;28;20043;-61
2023/10/22 00:17:24;;;;;;;22.02;12.20;;;;;;;3.20;68.87;100500.97;5112966;28;20024;-60
2023/10/22 00:19:50;;;;;;;15.80;11.10;;;;;;;3.23;68.48;100492.91;5113936;28;20039;-60
2023/10/22 00:22:16;;;;;;;22.00;11.20;;;;;;;3.27;67.37;100512.19;5113344;28;20036;-62
2023/10/22 00:24:43;;;;;;;16.48;10.30;;;;;;;3.28;67.12;100506.81;5113691;28;20048;-61
2023/10/22 00:27:11;;;;;;;18.65;10.65;;;;;;;3.31;66.79;100505.84;5113948;28;20035;-61
2023/10/22 00:29:36;;;;;;;19.40;10.02;;;;;;;3.37;66.39;100515.31;5113868;28;20114;-61
2023/10/22 00:32:02;;;;;;;18.55;10.57;;;;;;;3.37;66.62;100512.66;5113882;28;20493;-61
2023/10/22 00:34:28;;;;;;;21.50;10.70;;;;;;;3.43;66.26;100525.69;5113045;28;20034;-60
2023/10/22 00:36:54;;;;;;;29.45;11.60;;;;;;;3.32;66.19;100512.88;5113395;28;20058;-60
2023/10/22 00:39:19;;;;;;;17.98;10.52;;;;;;;3.40;66.42;100531.09;5113768;28;20425;-59
2023/10/22 00:41:45;;;;;;;20.23;11.65;;;;;;;3.39;66.18;100521.44;5113716;28;20051;-59
2023/10/22 00:44:10;;;;;;;18.10;10.68;;;;;;;3.45;66.05;100534.44;5112491;28;20087;-61
2023/10/22 00:46:37;;;;;;;19.63;10.60;;;;;;;3.43;66.68;100520.38;5113389;28;20028;-61
2023/10/22 00:49:02;;;;;;;16.73;10.50;;;;;;;3.50;65.72;100543.03;5113629;28;20106;-63
2023/10/22 00:51:28;;;;;;;15.25;10.15;;;;;;;3.55;65.84;100551.66;5113809;28;20036;-62
2023/10/22 00:53:54;;;;;;;17.95;10.70;;;;;;;3.55;65.70;100543.72;5113340;28;20039;-60
2023/10/22 00:56:20;;;;;;;15.32;10.20;;;;;;;3.53;65.81;100521.75;5113351;28;20369;-60
2023/10/22 00:58:46;;;;;;;19.58;11.13;;;;;;;3.55;65.99;100521.69;5112426;28;20346;-61
2023/10/22 01:01:13;;;;;;;19.20;11.73;;;;;;;3.59;65.98;100518.00;5112691;28;20031;-61
2023/10/22 01:03:39;;;;;;;18.65;12.40;;;;;;;3.56;65.54;100507.53;5113147;28;20087;-62
2023/10/22 01:06:06;;;;;;;18.52;11.02;;;;;;;3.40;65.53;100483.47;5113121;28;20035;-59
2023/10/22 01:08:33;;;;;;;19.27;12.32;;;;;;;3.60;65.46;100509.13;5113452;28;20023;-61
2023/10/22 01:11:09;;;;;;;20.50;12.27;;;;;;;3.67;65.76;100515.03;5112364;28;20080;-62
2023/10/22 01:13:35;;;;;;;18.67;12.07;;;;;;;3.63;65.26;100513.44;5112375;28;20127;-60
2023/10/22 01:16:01;;;;;;;19.73;11.57;;;;;;;3.66;65.61;100518.59;5113145;28;20078;-59
2023/10/22 01:18:27;;;;;;;17.95;11.13;;;;;;;3.68;64.67;100512.31;5113230;28;20419;-60
2023/10/22 01:20:53;;;;;;;16.98;11.45;;;;;;;3.65;64.73;100498.34;5113011;28;20027;-62
2023/10/22 01:23:18;;;;;;;19.05;11.32;;;;;;;3.71;64.29;100493.63;5113228;28;20055;-61
2023/10/22 01:25:44;;;;;;;13.45;8.88;;;;;;;3.78;64.04;100507.50;5113423;28;20099;-62
2023/10/22 01:28:10;;;;;;;16.80;8.82;;;;;;;3.78;64.34;100504.00;5112344;28;20024;-60
2023/10/22 01:30:35;;;;;;;14.82;9.50;;;;;;;3.76;64.14;100514.66;5112153;28;20035;-60
2023/10/22 01:33:01;;;;;;;16.50;9.45;;;;;;;3.80;64.50;100523.34;5112532;28;20027;-60
2023/10/22 01:35:26;;;;;;;16.65;9.93;;;;;;;3.79;64.39;100527.75;5112161;28;20027;-60
2023/10/22 01:37:52;;;;;;;14.27;9.57;;;;;;;3.67;64.02;100513.22;5115617;28;20326;-62
2023/10/22 01:40:18;;;;;;;16.02;9.30;;;;;;;3.86;63.98;100544.28;5117249;28;20366;-60
2023/10/22 01:42:45;;;;;;;11.88;6.30;;;;;;;3.91;62.85;100521.09;5117045;28;20080;-62
2023/10/22 01:45:11;;;;;;;8.38;5.18;;;;;;;3.91;61.60;100514.94;5116814;28;20107;-60
2023/10/22 01:47:36;;;;;;;6.80;4.32;;;;;;;3.90;61.55;100499.97;5117189;28;20035;-61
2023/10/22 01:50:04;;;;;;;6.75;4.45;;;;;;;3.88;61.32;100500.03;5117148;28;20027;-58
2023/10/22 01:52:30;;;;;;;8.57;5.07;;;;;;;3.94;60.89;100509.50;5116895;28;20582;-61
2023/10/22 01:54:56;;;;;;;9.10;4.80;;;;;;;3.93;61.35;100492.75;5115570;28;20028;-58
2023/10/22 01:57:23;;;;;;;7.80;4.70;;;;;;;3.84;61.01;100466.66;5117022;28;20039;-61
2023/10/22 01:59:49;;;;;;;7.07;4.35;;;;;;;3.78;59.96;100443.94;5116569;28;20114;-61
2023/10/22 02:02:15;;;;;;;7.55;4.55;;;;;;;3.91;60.99;100461.97;5116511;28;20118;-60
2023/10/22 02:04:41;;;;;;;6.10;4.20;;;;;;;3.96;60.56;100457.31;5116413;28;20103;-61
2023/10/22 02:07:06;;;;;;;5.78;3.72;;;;;;;3.91;59.90;100467.25;5116702;28;20110;-63
2023/10/22 02:09:32;;;;;;;7.43;4.35;;;;;;;3.90;60.33;100470.84;5115869;28;20023;-57
2023/10/22 02:11:57;;;;;;;6.25;3.67;;;;;;;3.84;59.87;100456.91;5115984;28;20040;-60
2023/10/22 02:14:24;;;;;;;6.60;4.40;;;;;;;3.71;60.39;100422.13;5116469;28;20019;-61
2023/10/22 02:16:50;;;;;;;6.47;4.40;;;;;;;3.84;60.31;100443.66;5116520;28;20034;-61
2023/10/22 02:19:15;;;;;;;10.05;4.50;;;;;;;3.87;60.79;100438.25;5116471;28;20024;-61
2023/10/22 02:22:01;;;;;;;7.32;5.07;;;;;;;3.92;60.89;100438.03;5115312;28;20490;-60
2023/10/22 02:24:28;;;;;;;7.25;4.97;;;;;;;3.91;59.95;100419.56;5116414;28;20217;-58
2023/10/22 02:26:54;;;;;;;9.45;5.03;;;;;;;3.57;60.02;100374.22;5116389;28;20054;-58
2023/10/22 02:29:19;;;;;;;11.40;5.25;;;;;;;3.73;60.65;100412.31;5116157;28;20024;-60
2023/10/22 02:31:45;;;;;;;8.38;4.78;;;;;;;3.68;60.65;100409.03;5115894;28;20031;-62
2023/10/22 02:34:10;;;;;;;8.23;5.10;;;;;;;3.61;60.57;100399.63;5115017;28;20035;-62
2023/10/22 02:36:36;;;;;;;7.65;4.88;;;;;;;3.71;61.02;100431.88;5116399;28;20365;-60
2023/10/22 02:39:04;;;;;;;8.93;5.45;;;;;;;3.71;60.92;100429.22;5115900;28;20115;-59
2023/10/22 02:41:30;;;;;;;11.48;5.90;;;;;;;3.68;61.49;100422.25;5115879;28;20024;-61
2023/10/22 02:43:57;;;;;;;8.98;5.50;;;;;;;3.73;61.49;100443.25;5097706;28;20089;-61
2023/10/22 02:46:23;;;;;;;10.80;5.93;;;;;;;3.75;60.93;100440.56;5116094;28;20038;-61
2023/10/22 02:48:48;;;;;;;10.68;5.70;;;;;;;3.78;60.90;100441.28;5114247;28;20031;-62
2023/10/22 02:51:14;;;;;;;8.70;5.32;;;;;;;3.82;60.58;100434.91;5115607;28;20457;-59
2023/10/22 02:53:39;;;;;;;12.70;5.38;;;;;;;3.83;60.66;100443.75;5115628;28;20024;-62
2023/10/22 02:56:07;;;;;;;9.75;5.57;;;;;;;3.86;60.45;100447.13;5115903;28;20024;-61
2023/10/22 02:58:32;;;;;;;9.57;5.38;;;;;;;3.90;61.04;100439.03;5115271;28;20469;-61
2023/10/22 03:01:09;;;;;;;7.57;5.15;;;;;;;4.00;60.44;100427.97;5115377;28;20070;-61
2023/10/22 03:03:39;;;;;;;10.73;5.32;;;;;;;3.87;59.84;100427.66;5115620;28;20039;-61
2023/10/22 03:06:07;;;;;;;10.90;5.57;;;;;;;3.84;59.83;100427.75;5114413;28;20032;-61
2023/10/22 03:08:37;;;;;;;12.82;5.85;;;;;;;3.84;60.22;100425.13;5115147;28;20495;-58
2023/10/22 03:11:04;;;;;;;8.32;5.57;;;;;;;3.68;60.53;100418.78;5115107;28;20042;-61
2023/10/22 03:13:31;;;;;;;10.85;5.78;;;;;;;3.66;60.92;100423.28;5115176;28;20593;-61
2023/10/22 03:15:59;;;;;;;8.38;5.22;;;;;;;3.63;60.82;100416.31;5115093;28;20410;-61
2023/10/22 03:18:24;;;;;;;10.32;5.53;;;;;;;3.70;60.99;100427.50;5114973;28;20118;-61
2023/10/22 03:20:50;;;;;;;9.40;5.47;;;;;;;3.80;60.06;100425.34;5114275;28;20110;-61
2023/10/22 03:23:16;;;;;;;11.70;5.72;;;;;;;3.78;60.43;100435.97;5114682;28;20055;-59
2023/10/22 03:25:43;;;;;;;10.80;6.03;;;;;;;3.79;60.47;100426.25;5115082;27;20032;-62
2023/10/22 03:28:09;;;;;;;12.00;6.38;;;;;;;3.71;59.95;100389.50;5115225;28;20031;-61
2023/10/22 03:30:39;;;;;;;10.02;6.22;;;;;;;3.83;60.28;100411.94;5114724;28;20035;-61
2023/10/22 03:33:05;;;;;;;8.63;5.95;;;;;;;3.76;59.95;100403.41;5114672;28;20172;-60
2023/10/22 03:35:31;;;;;;;9.27;5.60;;;;;;;3.71;60.45;100408.88;5114834;28;20043;-61
2023/10/22 03:37:58;;;;;;;8.88;5.72;;;;;;;3.48;60.92;100371.94;5114759;28;20439;-59
2023/10/22 03:40:24;;;;;;;8.45;5.50;;;;;;;3.71;59.84;100402.75;5114525;28;20092;-61
2023/10/22 03:42:49;;;;;;;7.90;5.47;;;;;;;3.66;60.25;100388.84;5114744;28;20472;-64
2023/10/22 03:45:16;;;;;;;9.48;5.93;;;;;;;3.53;60.40;100354.94;5113659;28;20115;-61
2023/10/22 03:47:41;;;;;;;12.75;5.82;;;;;;;3.63;60.82;100383.69;5114697;27;20098;-60
2023/10/22 03:50:07;;;;;;;10.13;5.95;;;;;;;3.60;61.07;100382.00;5114267;28;20488;-59
2023/10/22 03:52:33;;;;;;;8.82;6.03;;;;;;;3.62;60.83;100380.16;5114828;28;20442;-61
2023/10/22 03:54:59;;;;;;;10.63;6.30;;;;;;;3.61;60.62;100381.09;5114421;28;20031;-58
2023/10/22 03:57:25;;;;;;;11.45;6.53;;;;;;;3.58;60.38;100371.47;5114348;28;20024;-57
2023/10/22 03:59:50;;;;;;;8.07;5.78;;;;;;;3.32;60.98;100318.78;5112766;28;20032;-60
2023/10/22 04:02:16;;;;;;;10.15;6.38;;;;;;;3.62;60.26;100372.22;5113766;28;20031;-56
2023/10/22 04:04:42;;;;;;;8.65;5.43;;;;;;;3.67;60.37;100370.22;5114376;28;20034;-58
2023/10/22 04:07:07;;;;;;;8.07;5.80;;;;;;;3.61;60.46;100374.91;5112645;28;20356;-61
2023/10/22 04:09:33;;;;;;;9.15;5.60;;;;;;;3.57;60.79;100380.34;5114271;28;20023;-59
2023/10/22 04:11:58;;;;;;;9.73;5.72;;;;;;;3.61;60.57;100366.97;5114223;28;20034;-60
2023/10/22 04:14:24;;;;;;;9.93;5.82;;;;;;;3.51;60.59;100380.63;5113921;28;20438;-62
2023/10/22 04:16:50;;;;;;;11.48;6.15;;;;;;;3.25;60.70;100344.66;5113897;27;20347;-60
2023/10/22 04:19:15;;;;;;;9.50;5.97;;;;;;;3.49;60.57;100373.66;5113824;28;20115;-60
2023/10/22 04:21:41;;;;;;;9.60;6.03;;;;;;;3.42;60.78;100371.28;5114389;28;20096;-60
2023/10/22 04:24:08;;;;;;;8.50;5.95;;;;;;;3.43;60.66;100393.31;5112810;28;20386;-61
2023/10/22 04:26:33;;;;;;;12.30;6.30;;;;;;;3.35;61.04;100390.13;5113697;28;20402;-58
2023/10/22 04:28:59;;;;;;;9.32;6.25;;;;;;;3.33;61.35;100406.06;5113607;28;20062;-61
2023/10/22 04:31:24;;;;;;;8.80;5.40;;;;;;;3.40;61.53;100407.53;5113057;28;20324;-60
2023/10/22 04:33:50;;;;;;;8.95;6.20;;;;;;;3.47;61.65;100394.91;5112902;28;20093;-61
2023/10/22 04:36:16;;;;;;;8.82;5.85;;;;;;;3.46;61.47;100403.78;5112522;28;20442;-61
2023/10/22 04:38:42;;;;;;;13.75;6.00;;;;;;;3.45;61.25;100413.50;5113764;28;20394;-60
2023/10/22 04:41:11;;;;;;;9.65;5.88;;;;;;;3.51;61.63;100412.38;5112847;28;20074;-58
2023/10/22 04:43:37;;;;;;;13.48;6.03;;;;;;;3.50;61.50;100431.00;5112789;28;20032;-60
2023/10/22 04:46:02;;;;;;;8.05;5.65;;;;;;;3.54;61.21;100438.72;5113301;28;20026;-58
2023/10/22 04:48:28;;;;;;;12.60;5.60;;;;;;;3.58;61.20;100429.72;5113408;28;20034;-59
2023/10/22 04:50:55;;;;;;;11.35;6.38;;;;;;;3.62;60.84;100421.66;5112659;28;20035;-61
2023/10/22 04:53:21;;;;;;;11.13;6.38;;;;;;;3.63;61.17;100423.41;5113321;28;20041;-60
2023/10/22 04:55:56;;;;;;;7.03;5.32;;;;;;;3.66;61.13;100412.69;5113234;28;20036;-62
2023/10/22 04:58:22;;;;;;;;;;;;;;;3.96;60.92;100433.47;5113586;28;20028;-59
2023/10/22 05:00:47;;;;;;;8.38;5.85;;;;;;;3.77;60.45;100428.97;5113246;28;20367;-62
2023/10/22 05:03:13;;;;;;;9.38;5.82;;;;;;;3.72;60.47;100430.94;5113475;28;20439;-61
2023/10/22 05:05:39;;;;;;;10.95;5.90;;;;;;;3.66;61.00;100441.81;5113128;28;20032;-60
2023/10/22 05:08:05;;;;;;;11.45;5.60;;;;;;;3.67;60.73;100438.22;5112147;28;20035;-61
2023/10/22 05:10:36;;;;;;;11.60;5.68;;;;;;;3.72;61.42;100441.53;5113239;28;20055;-59
2023/10/22 05:13:02;;;;;;;7.90;5.03;;;;;;;3.62;60.75;100419.00;5115727;28;20096;-60
2023/10/22 05:15:27;;;;;;;8.60;4.80;;;;;;;3.69;60.60;100420.50;5117660;28;20218;-60
2023/10/22 05:17:53;;;;;;;5.78;4.28;;;;;;;3.43;60.34;100375.63;5117036;28;20032;-60
2023/10/22 05:20:18;;;;;;;9.10;5.03;;;;;;;3.61;60.68;100417.28;5117039;27;20368;-59
2023/10/22 05:22:44;;;;;;;11.50;4.95;;;;;;;3.59;60.79;100410.25;5117714;28;20020;-60
2023/10/22 05:25:10;;;;;;;6.25;4.40;;;;;;;3.53;61.17;100407.03;5096741;28;20068;-60
2023/10/22 05:27:35;;;;;;;9.07;5.32;;;;;;;3.49;61.80;100414.25;5078771;28;20036;-62
2023/10/22 05:30:01;;;;;;;10.00;5.72;;;;;;;3.52;61.66;100416.75;5095550;28;20388;-62
2023/10/22 05:32:27;;;;;;;8.30;5.13;;;;;;;3.54;61.80;100419.34;5096969;28;20032;-60
2023/10/22 05:34:53;;;;;;;8.10;5.03;;;;;;;3.64;61.56;100433.91;5096564;28;20362;-61
2023/10/22 05:37:18;;;;;;;7.32;5.20;;;;;;;3.59;61.64;100439.41;5096525;28;20035;-63
2023/10/22 05:39:44;;;;;;;8.90;4.82;;;;;;;3.63;61.20;100447.25;5096119;28;20024;-62
2023/10/22 05:42:09;;;;;;;7.55;4.72;;;;;;;3.62;61.12;100461.38;5096376;28;20052;-60
2023/10/22 05:44:36;;;;;;;8.48;5.20;;;;;;;3.62;61.42;100479.91;5095176;28;20028;-61
2023/10/22 05:47:02;;;;;;;6.72;5.00;;;;;;;3.70;60.81;100485.78;5096559;28;20039;-60
2023/10/22 05:49:28;;;;;;;7.30;5.15;;;;;;;3.64;60.99;100480.75;5096758;28;20078;-60
2023/10/22 05:51:54;;;;;;;8.73;5.82;;;;;;;3.61;61.13;100479.06;5096003;28;20060;-58
2023/10/22 05:54:20;;;;;;;9.32;5.72;;;;;;;3.62;61.20;100477.25;5095769;28;20040;-62
2023/10/22 05:56:46;;;;;;;6.55;5.20;;;;;;;3.40;61.86;100457.84;5096571;28;20032;-58
2023/10/22 05:59:11;;;;;;;9.68;5.70;;;;;;;3.56;62.02;100481.03;5096195;28;20103;-61
2023/10/22 06:01:41;;;;;;;10.68;6.07;;;;;;;3.61;61.55;100464.94;5095888;28;20085;-59
2023/10/22 06:04:08;;;;;;;9.27;5.70;;;;;;;3.61;61.79;100462.31;5095729;28;20096;-62
2023/10/22 06:06:33;;;;;;;9.73;5.78;;;;;;;3.64;62.11;100470.16;5096303;28;20410;-60
2023/10/22 06:08:59;;;;;;;8.50;5.63;;;;;;;3.67;61.79;100470.00;5095983;28;20052;-60
2023/10/22 06:11:25;;;;;;;9.73;6.13;;;;;;;3.72;61.21;100462.72;5094688;28;20358;-62
2023/10/22 06:13:50;;;;;;;10.07;5.68;;;;;;;3.70;61.88;100438.94;5095645;28;20427;-63
2023/10/22 06:16:16;;;;;;;7.90;5.15;;;;;;;3.74;61.76;100466.19;5095481;28;20027;-61
2023/10/22 06:18:41;;;;;;;7.82;5.57;;;;;;;3.81;61.31;100470.28;5095140;28;20047;-62
2023/10/22 06:21:14;;;;;;;11.25;6.53;;;;;;;3.93;61.07;100470.69;5095517;28;20024;-61
2023/10/22 06:23:40;;;;;;;10.73;5.82;;;;;;;3.86;61.24;100460.38;5101937;28;20450;-63
2023/10/22 06:26:09;;;;;;;9.25;5.88;;;;;;;3.90;61.26;100465.53;5115384;28;20092;-62
2023/10/22 06:28:35;;;;;;;13.65;7.38;;;;;;;3.87;61.04;100448.84;5116329;28;20078;-62
2023/10/22 06:31:08;;;;;;;11.00;6.28;;;;;;;3.96;60.85;100454.66;5115361;27;20055;-61
2023/10/22 06:33:35;;;;;;;13.07;7.72;;;;;;;3.93;60.80;100449.50;5115813;28;20035;-59
2023/10/22 06:36:20;;;;;;;17.08;7.57;;;;;;;4.02;60.93;100438.50;5116172;28;20110;-59
2023/10/22 06:38:47;;;;;;;14.30;7.88;;;;;;;3.97;61.01;100451.94;5115963;28;20103;-59
2023/10/22 06:41:24;;;;;;;16.10;7.88;;;;;;;4.08;61.20;100470.03;5114603;28;20023;-61
2023/10/22 06:43:50;;;;;;;14.80;8.27;;;;;;;4.01;61.17;100474.75;5097952;28;20024;-62
2023/10/22 06:46:19;;;;;;;15.55;8.63;;;;;;;4.02;61.71;100462.34;5115938;28;20031;-60
2023/10/22 06:48:45;;;;;;;15.02;8.60;;;;;;;3.80;62.40;100438.56;5115534;28;20035;-63
2023/10/22 06:51:12;;;;;;;18.02;9.20;;;;;;;4.00;61.87;100473.03;5115282;28;20437;-62
2023/10/22 06:53:38;;;;;;;19.13;9.98;;;;;;;3.88;62.51;100442.63;5114527;28;20028;-62
2023/10/22 06:56:05;;;;;;;27.30;12.38;;;;;;;4.04;61.67;100436.63;5115430;28;20146;-60
2023/10/22 06:58:31;;;;;;;26.88;14.98;;;;;;;3.95;61.93;100451.16;5115218;27;20027;-61
2023/10/22 07:01:04;;;;;;;33.13;17.80;;;;;;;3.98;62.17;100466.94;5114093;28;20362;-61
2023/10/22 07:03:29;;;;;;;39.83;20.38;;;;;;;3.89;62.05;100438.16;5115111;28;20454;-61
2023/10/22 07:05:55;;;;;;;36.95;19.63;;;;;;;3.97;62.31;100435.19;5114370;28;20066;-62
2023/10/22 07:08:20;;;;;;;38.78;21.13;;;;;;;3.77;62.88;100415.72;5115246;28;20446;-62
2023/10/22 07:10:46;;;;;;;37.92;20.38;;;;;;;4.02;62.42;100459.69;5113936;28;20035;-63
2023/10/22 07:13:11;;;;;;;37.97;21.08;;;;;;;4.06;63.34;100442.72;5115315;28;20080;-61
2023/10/22 07:15:37;;;;;;;38.17;20.50;;;;;;;4.15;63.22;100452.94;5114713;28;20111;-60
2023/10/22 07:18:02;;;;;;;33.38;18.60;;;;;;;4.30;62.83;100459.38;5114214;28;20028;-62
2023/10/22 07:20:28;;;;;;;28.55;15.77;;;;;;;4.30;62.35;100445.22;5114026;28;20059;-62
2023/10/22 07:22:53;;;;;;;29.85;14.82;;;;;;;4.35;62.35;100453.00;5113828;28;20169;-61
2023/10/22 07:25:19;;;;;;;36.53;17.30;;;;;;;4.30;61.81;100438.16;5113995;28;20135;-61
2023/10/22 07:27:45;;;;;;;34.40;19.17;;;;;;;4.29;61.99;100424.94;5114872;28;20036;-59
2023/10/22 07:30:11;;;;;;;29.25;17.75;;;;;;;4.25;62.56;100420.72;5114642;27;20024;-60
2023/10/22 07:32:36;;;;;;;30.30;17.67;;;;;;;4.33;63.38;100434.47;5096607;28;20038;-63
2023/10/22 07:35:02;;;;;;;33.72;18.70;;;;;;;4.38;63.32;100434.28;5114377;28;20351;-60
2023/10/22 07:37:29;;;;;;;37.78;20.67;;;;;;;4.48;62.52;100427.66;5114712;28;20020;-61
2023/10/22 07:39:55;;;;;;;35.10;20.25;;;;;;;4.59;62.28;100430.66;5113651;28;20030;-61
2023/10/22 07:42:20;;;;;;;39.72;22.65;;;;;;;4.66;61.05;100428.59;5114031;28;20031;-62
2023/10/22 07:44:50;;;;;;;38.90;21.02;;;;;;;4.84;60.58;100421.56;5114780;28;20350;-61
2023/10/22 07:47:15;;;;;;;41.08;22.88;;;;;;;4.70;61.80;100411.59;5114090;28;20403;-61
2023/10/22 07:49:41;;;;;;;36.83;22.58;;;;;;;4.65;61.83;100395.03;5113954;28;20357;-61
2023/10/22 07:52:06;;;;;;;38.53;23.25;;;;;;;4.51;61.62;100381.56;5113520;28;20031;-63
2023/10/22 07:54:32;;;;;;;45.13;24.90;;;;;;;4.66;61.34;100417.09;5114405;28;20066;-63
2023/10/22 07:56:57;;;;;;;44.45;25.70;;;;;;;4.56;61.08;100396.34;5114184;28;20089;-62
2023/10/22 07:59:23;;;;;;;45.75;26.85;;;;;;;4.25;61.01;100349.16;5114308;28;20467;-62
2023/10/22 08:01:49;;;;;;;46.03;25.20;;;;;;;4.47;61.62;100388.81;5114205;28;20027;-62
2023/10/22 08:04:14;;;;;;;42.05;24.63;;;;;;;4.47;61.26;100386.16;5114037;28;20378;-62
2023/10/22 08:06:40;;;;;;;44.50;26.10;;;;;;;4.52;61.40;100386.81;5113263;28;20024;-62
2023/10/22 08:09:06;;;;;;;42.25;23.85;;;;;;;4.54;60.98;100373.44;5112416;28;20028;-61
2023/10/22 08:11:32;;;;;;;42.25;25.85;;;;;;;4.57;60.74;100357.41;5113722;28;20446;-60
2023/10/22 08:13:57;;;;;;;44.17;24.30;;;;;;;4.56;60.44;100348.59;5113774;28;20042;-63
2023/10/22 08:16:23;;;;;;;43.67;25.30;;;;;;;4.60;60.31;100341.38;5112407;28;20038;-60
2023/10/22 08:18:49;;;;;;;45.22;26.38;;;;;;;4.62;59.98;100352.75;5113121;28;20080;-62
2023/10/22 08:21:16;;;;;;;39.30;23.02;;;;;;;4.49;60.66;100299.44;5112865;28;20055;-61
2023/10/22 08:23:42;;;;;;;43.38;26.02;;;;;;;4.88;60.05;100332.06;5113990;28;20112;-62
2023/10/22 08:26:07;;;;;;;45.15;26.42;;;;;;;4.91;60.30;100331.91;5113652;28;20035;-62
2023/10/22 08:28:35;;;;;;;43.42;26.33;;;;;;;5.08;59.71;100328.44;5113351;28;20035;-61
2023/10/22 08:31:00;;;;;;;41.33;25.50;;;;;;;5.22;59.49;100325.06;5113695;28;20096;-64
2023/10/22 08:33:26;;;;;;;41.40;23.95;;;;;;;5.45;58.71;100325.72;5113972;28;20023;-62
2023/10/22 08:35:52;;;;;;;42.35;23.13;;;;;;;5.57;58.65;100318.91;5113602;28;20080;-61
2023/10/22 08:38:17;;;;;;;41.15;24.02;;;;;;;5.69;58.47;100312.09;5113254;28;20407;-62
2023/10/22 08:40:43;;;;;;;37.53;23.33;;;;;;;5.98;57.20;100315.00;5113658;28;20023;-62
2023/10/22 08:43:16;;;;;;;32.88;21.00;;;;;;;6.04;56.72;100317.38;5113692;28;20023;-62
2023/10/22 08:45:45;;;;;;;35.08;21.80;;;;;;;5.83;57.16;100317.56;5113063;28;20062;-63
2023/10/22 08:48:13;;;;;;;36.22;22.52;;;;;;;5.77;57.97;100332.97;5111973;28;20057;-61
2023/10/22 08:50:43;;;;;;;31.70;19.92;;;;;;;5.85;57.23;100333.41;5112754;28;20023;-62
2023/10/22 08:53:11;;;;;;;30.67;18.52;;;;;;;5.82;57.46;100330.91;5112083;28;20063;-62
2023/10/22 08:55:37;;;;;;;28.23;18.55;;;;;;;5.81;57.49;100316.78;5112973;28;20451;-61
2023/10/22 08:58:03;;;;;;;29.40;17.85;;;;;;;5.86;56.58;100320.03;5113111;28;20442;-59
2023/10/22 09:00:32;;;;;;;33.80;17.67;;;;;;;5.87;56.54;100311.13;5113558;28;20034;-62
2023/10/22 09:02:57;;;;;;;24.52;16.70;;;;;;;5.77;57.47;100304.56;5113621;28;20122;-62
2023/10/22 09:05:23;;;;;;;25.35;17.17;;;;;;;5.92;56.76;100310.91;5112107;28;20067;-61
2023/10/22 09:07:51;;;;;;;25.70;16.20;;;;;;;6.05;56.44;100311.13;5113426;28;20126;-62
2023/10/22 09:10:43;;;;;;;24.70;15.80;;;;;;;6.32;56.94;100297.25;5112957;28;20092;-61
2023/10/22 09:13:15;;;;;;;24.02;16.60;;;;;;;6.35;55.96;100278.47;5109881;28;20116;-61
2023/10/22 09:15:49;;;;;;;21.80;14.43;;;;;;;6.44;55.18;100282.41;5113014;28;20096;-61
2023/10/22 09:18:16;;;;;;;23.60;15.83;;;;;;;6.31;55.87;100272.44;5112931;28;20023;-61
2023/10/22 09:20:44;;;;;;;23.63;14.88;;;;;;;6.32;55.44;100295.44;5112685;28;20020;-60
2023/10/22 09:23:18;;;;;;;24.10;15.80;;;;;;;6.21;55.46;100292.53;5113053;28;20386;-61
2023/10/22 09:25:52;;;;;;;22.08;15.32;;;;;;;6.03;55.81;100295.25;5112995;28;20107;-63
2023/10/22 09:28:21;;;;;;;22.65;14.82;;;;;;;5.88;57.00;100275.63;5111994;28;20165;-62
2023/10/22 09:30:53;;;;;;;22.13;14.98;;;;;;;5.75;56.32;100259.50;5113028;28;20039;-62
2023/10/22 09:33:29;;;;;;;22.55;15.15;;;;;;;5.71;56.97;100257.94;5112668;28;20370;-63
2023/10/22 09:36:00;;;;;;;22.55;14.93;;;;;;;5.67;56.76;100253.75;5111659;28;20039;-63
2023/10/22 09:38:47;;;;;;;23.40;15.77;;;;;;;5.78;57.64;100263.78;5113358;28;20032;-62
2023/10/22 09:41:26;;;;;;;23.42;15.15;;;;;;;5.39;57.25;100227.78;5112171;28;20032;-62
2023/10/22 09:43:53;;;;;;;20.58;15.40;;;;;;;5.29;57.13;100240.69;5111533;28;20518;-62
2023/10/22 09:46:19;;;;;;;22.83;14.90;;;;;;;5.25;57.27;100237.31;5111826;28;20358;-62
2023/10/22 09:48:49;;;;;;;24.05;15.80;;;;;;;5.16;58.18;100238.66;5112723;28;20027;-59
2023/10/22 09:51:16;;;;;;;21.55;14.38;;;;;;;5.01;58.49;100242.09;5112551;28;20038;-61
2023/10/22 09:53:49;;;;;;;18.98;14.10;;;;;;;5.00;58.71;100245.69;5112100;28;20032;-62
2023/10/22 09:56:19;;;;;;;20.13;15.43;;;;;;;5.00;59.23;100235.91;5111663;28;20031;-63
2023/10/22 09:58:47;;;;;;;19.27;14.45;;;;;;;5.07;58.53;100238.28;5115335;28;20052;-62
2023/10/22 10:01:13;;;;;;;21.20;14.82;;;;;;;5.06;58.87;100233.88;5115227;28;20028;-64
2023/10/22 10:03:41;;;;;;;20.20;14.10;;;;;;;5.12;59.16;100238.91;5115206;28;20040;-63
2023/10/22 10:06:07;;;;;;;21.67;14.20;;;;;;;5.24;58.37;100238.25;5116447;28;20461;-62
2023/10/22 10:08:36;;;;;;;20.08;14.35;;;;;;;5.23;58.53;100239.19;5115897;28;20042;-62
2023/10/22 10:11:04;;;;;;;20.05;14.48;;;;;;;5.15;58.38;100230.78;5116479;28;20023;-61
2023/10/22 10:13:30;;;;;;;22.67;14.90;;;;;;;5.01;59.14;100232.31;5116449;28;20046;-62
2023/10/22 10:16:01;;;;;;;19.20;12.98;;;;;;;5.01;59.22;100219.06;5115419;28;20442;-61
2023/10/22 10:18:58;;;;;;;18.63;13.35;;;;;;;5.00;59.35;100221.81;5116278;28;20089;-60
2023/10/22 10:21:36;;;;;;;18.67;13.60;;;;;;;5.10;59.56;100219.53;5116090;28;20032;-60
2023/10/22 10:24:14;;;;;;;18.65;13.02;;;;;;;5.07;59.60;100211.75;5115843;28;20462;-61
2023/10/22 10:26:41;;;;;;;20.00;13.85;;;;;;;4.92;59.74;100216.88;5116362;28;20040;-61
2023/10/22 10:29:07;;;;;;;20.80;14.85;;;;;;;4.87;59.06;100198.53;5115093;28;20027;-62
2023/10/22 10:31:32;;;;;;;20.98;13.65;;;;;;;4.87;59.75;100218.91;5115949;28;20031;-62
2023/10/22 10:33:59;;;;;;;19.52;11.95;;;;;;;4.84;59.56;100213.78;5115764;28;20035;-62
2023/10/22 10:36:27;;;;;;;23.48;15.70;;;;;;;4.73;59.70;100211.66;5116141;28;20506;-62
2023/10/22 10:38:53;;;;;;;20.58;15.10;;;;;;;4.73;60.65;100207.19;5115832;28;20047;-62
2023/10/22 10:42:04;;;;;;;22.75;15.50;;;;;;;4.89;60.58;100201.13;5114831;28;20424;-60
2023/10/22 10:44:30;;;;;;;20.45;15.52;;;;;;;4.66;60.14;100162.50;5112709;28;20506;-62
2023/10/22 10:47:35;;;;;;;23.88;15.93;;;;;;;4.93;60.90;100201.81;5097701;28;20829;-61
2023/10/22 10:50:03;;;;;;;22.65;16.10;;;;;;;4.93;59.68;100204.47;5052796;28;20470;-60
2023/10/22 10:52:34;;;;;;;22.20;15.88;;;;;;;4.82;60.12;100189.97;5053161;28;20037;-61
2023/10/22 10:55:06;;;;;;;26.75;15.82;;;;;;;4.55;59.67;100155.06;5052893;28;20041;-61
2023/10/22 10:57:44;;;;;;;25.70;16.77;;;;;;;4.68;60.73;100185.34;5053412;28;20126;-62
2023/10/22 11:00:30;;;;;;;24.15;17.20;;;;;;;4.63;60.37;100190.03;5036116;28;20129;-62
2023/10/22 11:02:57;;;;;;;;;;;;;;;4.91;59.82;100185.13;5053311;28;20041;-62
2023/10/22 11:05:49;;;;;;;26.10;16.52;;;;;;;4.64;60.87;100167.88;5052848;28;20340;-60
2023/10/22 11:08:20;;;;;;;28.83;16.83;;;;;;;4.46;61.23;100167.00;5050071;28;20537;-61
2023/10/22 11:10:46;;;;;;;24.35;16.13;;;;;;;4.41;61.40;100176.97;5035223;28;20105;-62
2023/10/22 11:13:12;;;;;;;24.17;16.52;;;;;;;4.44;61.29;100174.16;5052717;28;20119;-60
2023/10/22 11:15:38;;;;;;;25.83;17.08;;;;;;;4.41;61.14;100171.66;5052646;28;20525;-63
2023/10/22 11:18:05;;;;;;;22.83;16.15;;;;;;;4.44;61.38;100164.44;5053223;28;20475;-61
2023/10/22 11:20:32;;;;;;;20.50;16.38;;;;;;;4.39;61.77;100166.47;5078669;28;20067;-63
2023/10/22 11:22:58;;;;;;;25.52;15.95;;;;;;;4.35;61.81;100164.03;5114762;28;20042;-62
2023/10/22 11:25:25;;;;;;;21.52;16.17;;;;;;;4.38;61.50;100162.09;5115361;28;20039;-61